This is the latest recevied weather packets stored in our database for station/object K7MT-WX. If no packets are shown the sender has not sent any weather packets the latest 10 day(s).
| Time | Temp. | Humidity | Pressure | Rain* | Wind** | Luminosity | Snow |
|---|---|---|---|---|---|---|---|
| 1777726060 | 0.56° C | 81% | 1019.1 hPa | 0 mm | - | - | - |
| 1777725159 | 0.56° C | 83% | 1019 hPa | 0 mm | - | - | - |
| 1777724230 | 0° C | 83% | 1018.9 hPa | 0 mm | - | - | - |
| 1777723300 | 0° C | 82% | 1018.9 hPa | 0 mm | - | - | - |
| 1777722399 | 0.56° C | 80% | 1018.7 hPa | 0 mm | - | - | - |
| 1777721500 | 1.11° C | 80% | 1018.7 hPa | 0 mm | - | - | - |
| 1777720599 | 1.67° C | 77% | 1018.5 hPa | 0 mm | - | - | - |
| 1777719669 | 1.67° C | 76% | 1018.4 hPa | 0 mm | - | - | - |
| 1777718769 | 1.67° C | 78% | 1018.2 hPa | 0 mm | - | - | - |
| 1777717839 | 2.22° C | 76% | 1018.3 hPa | 0 mm | - | - | - |
| 1777716909 | 2.22° C | 76% | 1018.2 hPa | 0 mm | - | - | - |
| 1777716009 | 2.22° C | 76% | 1018 hPa | 0 mm | - | - | - |
| 1777715109 | 2.22° C | 75% | 1017.9 hPa | 0 mm | - | - | - |
| 1777714209 | 2.78° C | 73% | 1017.8 hPa | 0 mm | - | - | - |
| 1777713309 | 3.33° C | 70% | 1017.8 hPa | 0 mm | - | - | - |
| 1777712409 | 3.89° C | 70% | 1017.8 hPa | 0 mm | - | - | - |
| 1777711509 | 3.89° C | 69% | 1017.7 hPa | 0 mm | - | - | - |
| 1777710609 | 3.89° C | 68% | 1017.8 hPa | 0 mm | - | - | - |
| 1777709679 | 4.44° C | 68% | 1017.8 hPa | 0 mm | - | - | - |
| 1777708750 | 4.44° C | 67% | 1017.7 hPa | 0 mm | - | - | - |
| 1777707819 | 5° C | 65% | 1017.6 hPa | 0 mm | - | - | - |
| 1777706919 | 5° C | 64% | 1017.6 hPa | 0 mm | - | - | - |
| 1777705990 | 6.11° C | 61% | 1017.4 hPa | 0 mm | - | - | - |
| 1777705059 | 6.11° C | 62% | 1017.4 hPa | 0 mm | - | - | - |
| 1777704159 | 6.11° C | 60% | 1017.3 hPa | 0 mm | - | - | - |
* Rain latest hour (hover to see other rain measurements)
** Current wind speed in m/s (hover to see current wind gust speed)